x

South Moresby (46147) Wave Buoy

4:00pm - Wed 10th Feb 2016 All times are PST. -8 hours from GMT.

  • Sig Wave height 13.4ft
  • Peak Period 12s
  • Wind
    20mph, 25mph gusts
  • Sea Temp 48°f
  • Air Temp 50°f
  • Sea Pressure 1011.8mb
  • South Moresby
  • South Moresby

More Historic Weather Station data

Upgrade to MSW Pro to gain access to the past 30 days of data for over 8000 Wavebouys and Weather Stations around the globe.

Join Pro

Comparision Forecast

View Surf forecast
   
Wed 02/10 4:00pm 13.5ft 12s 20 25 mph 1011.8mb 48f 50f
3:00pm 13.5ft 8s 22 27 mph 1009.9mb 48f 50f
2:00pm 13ft 9s 25 29 mph 1008.4mb 48f 49f
1:00pm 12ft 8s 20 25 mph 1007.2mb 48f 50f
12:00pm 11ft 8s 25 29 mph 1005mb 48f 50f
11:00am 11ft 8s 29 34 mph 1004.6mb 48f 49f
10:00am 11ft 7s 29 34 mph 1005.2mb 48f 50f
9:00am 11ft 8s 31 38 mph 1005mb 48f 49f
8:00am 11ft 7s 31 40 mph 1005.1mb 48f 49f
7:00am 10ft 7s 29 36 mph 1006mb 48f 49f
6:00am 9ft 8s 31 38 mph 1007.2mb 48f 49f
5:00am 10ft 8s 27 34 mph 1008mb 48f 49f
4:00am 10ft 8s 27 34 mph 1008.9mb 48f 49f
3:00am 11ft 8s 25 31 mph 1009.6mb 48f 48f
2:00am 10ft 8s 25 29 mph 1009.5mb 48f 48f
1:00am 10ft 8s 20 27 mph 1010mb 48f 49f
12:00am 9.5ft 8s 22 27 mph 1010.3mb 48f 49f
Tue 02/09 11:00pm 10ft 8s 22 27 mph 1009.6mb 48f 49f
10:00pm 10ft 8s 20 27 mph 1008.6mb 48f 49f
9:00pm 10.5ft 9s 27 34 mph 1007.4mb 48f 49f
8:00pm 10.5ft 8s 25 29 mph 1006.5mb 48f 49f
7:00pm 10ft 10s 20 25 mph 1006.4mb 48f 49f
6:00pm 11ft 11s 22 27 mph 1006.9mb 48f 49f
5:00pm 11ft 12s 20 25 mph 1007.2mb 48f 49f
4:00pm 10ft 11s 25 31 mph 1007.2mb 48f 49f
3:00pm 10.5ft 7s 25 31 mph 1007.4mb 48f 49f
2:00pm 10ft 12s 25 38 mph 1007.1mb 48f 51f
1:00pm 9ft 12s 25 31 mph 1007.7mb 48f 51f
12:00pm 9ft 12s 25 29 mph 1008.8mb 48f 51f
11:00am 9ft 13s 22 27 mph 1009.5mb 48f 51f
10:00am 9ft 13s 22 27 mph 1010.6mb 48f 51f
9:00am 10ft 12s 22 27 mph 1010.9mb 48f 50f
8:00am 10ft 12s 22 27 mph 1012.5mb 48f 50f
7:00am 11.5ft 13s 22 31 mph 1012.9mb 48f 50f
6:00am 13ft 12s 20 27 mph 1014.3mb 48f 49f
5:00am 12.5ft 12s 20 25 mph 1015.5mb 48f 49f
4:00am 14.5ft 13s 18 22 mph 1017.2mb 48f 49f
3:00am 14.5ft 13s 18 22 mph 1018.3mb 48f 48f
2:00am 14.5ft 14s 16 22 mph 1019.5mb 48f 48f
1:00am 13.5ft 12s 16 20 mph 1020.7mb 48f 48f
12:00am 14ft 13s 13 18 mph 1021.4mb 49f 48f
Mon 02/08 11:00pm 14ft 13s 9 11 mph 1022.5mb 49f 49f
10:00pm 12.5ft 13s 9 13 mph 1023.2mb 49f 49f
9:00pm 15ft 14s 13 18 mph 1023.4mb 48f 49f
8:00pm 13ft 14s 16 18 mph 1023.7mb 49f 49f
7:00pm 13ft 14s 18 22 mph 1023.5mb 49f 49f
6:00pm 14ft 14s 20 25 mph 1023.4mb 48f 49f
5:00pm 15ft 15s 20 25 mph 1023.8mb 49f 49f
4:00pm 15.5ft 14s 20 25 mph 1024.1mb 49f 49f
3:00pm 17.5ft 12s 22 27 mph 1023.6mb 49f 48f
2:00pm 18.5ft 15s 27 31 mph 1023.3mb 49f 49f
1:00pm 19.5ft 14s 25 31 mph 1023.2mb 49f 49f
12:00pm 20.5ft 14s 25 29 mph 1023.1mb 49f 50f
11:00am 20.5ft 14s 27 31 mph 1023.4mb 48f 50f
10:00am 19.5ft 15s 27 34 mph 1022.6mb 48f 50f
9:00am 20ft 16s 27 34 mph 1022.3mb 49f 50f
8:00am 19.5ft 15s 27 34 mph 1022.1mb 49f 50f
7:00am 19ft 16s 29 36 mph 1021.6mb 49f 50f
6:00am 20.5ft 16s 31 38 mph 1021.3mb 49f 50f
5:00am 19ft 17s 29 36 mph 1021mb 49f 50f
4:00am 17.5ft 16s 29 36 mph 1021.2mb 49f 50f
3:00am 19.5ft 18s 27 36 mph 1021.5mb 48f 50f
2:00am 19ft 16s 29 36 mph 1020.9mb 48f 49f
1:00am 17ft 17s 29 36 mph 1021mb 48f 49f
12:00am 19.5ft 17s 27 31 mph 1021.5mb 48f 49f
Sun 02/07 11:00pm 18.5ft 18s 25 31 mph 1021.2mb 48f 49f
10:00pm 21ft 17s 27 34 mph 1021mb 48f 49f
9:00pm 20.5ft 16s 27 31 mph 1021.3mb 48f 50f
8:00pm 17ft 17s 27 34 mph 1020.9mb 48f 50f
7:00pm 15ft 11s 25 31 mph 1021.1mb 48f 50f
6:00pm 15.5ft 11s 27 36 mph 1020.8mb 48f 50f
5:00pm 16.5ft 10s 27 34 mph 1020.6mb 48f 50f
4:00pm 15.5ft 10s 27 34 mph 1020.2mb 48f 49f
3:00pm 16.5ft 10s 27 34 mph 1019.8mb 48f 49f
2:00pm 15.5ft 11s 27 34 mph 1019.6mb 48f 49f
1:00pm 16ft 10s 27 34 mph 1019.7mb 48f 49f
12:00pm 18ft 11s 25 34 mph 1019.8mb 48f 49f
11:00am 18ft 11s 27 36 mph 1019.7mb 48f 49f
10:00am 18ft 10s 29 36 mph 1018.4mb 48f 49f
9:00am 17.5ft 10s 29 36 mph 1017.5mb 49f 49f
8:00am 18.5ft 10s 29 38 mph 1017.3mb 49f 49f
7:00am 19ft 10s 34 40 mph 1016.9mb 49f 48f
6:00am 18.5ft 10s 31 40 mph 1017.1mb 49f 48f
5:00am 17.5ft 10s 34 43 mph 1017.1mb 48f 48f
4:00am 15ft 10s 36 47 mph 1017mb 48f 47f
3:00am 16.5ft 8s 36 45 mph 1017.5mb 48f 47f
2:00am 14.5ft 8s 38 47 mph 1017.4mb 48f 47f